Time;durP1;ratioP1;P1;durP2;ratioP2;P2;SDS_P1;SDS_P2;PMS_P1;PMS_P2;Temp;Humidity;BMP_temperature;BMP_pressure;BME280_temperature;BME280_humidity;BME280_pressure;Samples;Min_cycle;Max_cycle;Signal;HPM_P1;HPM_P2
2022/08/23 00:00:06;;;;;;;1.73;1.23;;;24.50;22.00;;;;;;5067033;28;20858;-83
2022/08/23 00:02:40;;;;;;;2.30;1.60;;;24.50;20.60;;;;;;5072534;28;20958;-82
2022/08/23 00:05:11;;;;;;;1.73;1.63;;;24.50;23.80;;;;;;5071827;28;20486;-81
2022/08/23 00:07:42;;;;;;;3.20;1.70;;;24.50;21.80;;;;;;5072528;28;20462;-82
2022/08/23 00:10:14;;;;;;;3.60;1.57;;;24.50;20.80;;;;;;5071129;28;20549;-82
2022/08/23 00:12:43;;;;;;;4.53;1.40;;;24.50;20.50;;;;;;5071671;28;20446;-82
2022/08/23 00:15:14;;;;;;;1.77;1.63;;;24.40;20.20;;;;;;5068310;28;20478;-82
2022/08/23 00:17:42;;;;;;;1.60;1.50;;;24.40;19.50;;;;;;5071105;28;20478;-82
2022/08/23 00:20:13;;;;;;;1.70;1.60;;;24.40;22.30;;;;;;5058190;28;20443;-82
2022/08/23 00:22:42;;;;;;;1.90;1.60;;;24.40;19.60;;;;;;5059304;28;20459;-81
2022/08/23 00:25:14;;;;;;;1.50;1.40;;;24.30;20.30;;;;;;5070918;28;20923;-82
2022/08/23 00:27:42;;;;;;;2.77;1.73;;;24.30;19.40;;;;;;5069797;28;20458;-83
2022/08/23 00:30:15;;;;;;;1.73;1.53;;;24.30;19.80;;;;;;5072217;28;20496;-82
2022/08/23 00:32:44;;;;;;;2.00;1.77;;;24.30;18.90;;;;;;5071044;28;20462;-83
2022/08/23 00:35:14;;;;;;;2.17;1.40;;;24.20;20.00;;;;;;5061930;28;20476;-82
2022/08/23 00:37:55;;;;;;;1.90;1.47;;;24.20;19.10;;;;;;5069061;28;20531;-81
2022/08/23 00:40:49;;;;;;;1.50;1.40;;;24.10;18.40;;;;;;5071076;28;20524;-83
2022/08/23 00:49:08;;;;;;;2.30;1.60;;;24.00;17.60;;;;;;5055482;28;20473;-82
2022/08/23 00:51:45;;;;;;;1.83;1.70;;;23.90;17.60;;;;;;5071132;28;20549;-82
2022/08/23 00:54:23;;;;;;;3.13;2.87;;;23.90;18.70;;;;;;5071284;28;21027;-83
2022/08/23 00:56:53;;;;;;;2.90;2.10;;;23.90;16.50;;;;;;5057771;28;20868;-82
2022/08/23 00:59:23;;;;;;;2.23;1.90;;;23.80;17.40;;;;;;5069872;28;20474;-82
2022/08/23 01:01:52;;;;;;;2.87;2.30;;;23.80;16.30;;;;;;5071343;28;20468;-82
2022/08/23 01:04:20;;;;;;;2.20;2.00;;;23.70;16.40;;;;;;5070511;28;20877;-83
2022/08/23 01:06:57;;;;;;;2.77;1.67;;;23.70;17.10;;;;;;5066887;28;20458;-83
2022/08/23 01:09:25;;;;;;;1.73;1.50;;;23.70;16.30;;;;;;5071131;28;20457;-82
2022/08/23 01:12:00;;;;;;;2.60;1.50;;;23.70;16.50;;;;;;5068901;28;20884;-82
2022/08/23 01:14:33;;;;;;;1.50;1.37;;;23.70;16.20;;;;;;5070773;28;20539;-82
2022/08/23 01:17:05;;;;;;;2.77;1.70;;;23.70;16.00;;;;;;5058887;28;20490;-82
2022/08/23 01:19:35;;;;;;;3.40;1.63;;;23.70;16.60;;;;;;5067336;28;20455;-82
2022/08/23 01:22:09;;;;;;;1.50;1.40;;;23.60;16.60;;;;;;5071618;28;20446;-83
2022/08/23 01:24:40;;;;;;;2.03;1.93;;;23.60;15.20;;;;;;5057584;28;20475;-82
2022/08/23 01:27:29;;;;;;;2.13;1.70;;;23.60;15.70;;;;;;5070872;28;20494;-83
2022/08/23 01:30:00;;;;;;;1.50;1.30;;;23.60;16.60;;;;;;5071143;28;20820;-83
2022/08/23 01:32:28;;;;;;;1.70;1.60;;;23.60;17.90;;;;;;5070805;28;20473;-82
2022/08/23 01:34:56;;;;;;;3.93;1.40;;;23.50;17.00;;;;;;5067619;28;20470;-83
2022/08/23 01:37:24;;;;;;;1.50;1.40;;;23.50;16.60;;;;;;5058907;28;20489;-82
2022/08/23 01:39:54;;;;;;;1.60;1.50;;;23.50;17.10;;;;;;5068180;28;20476;-82
2022/08/23 01:42:22;;;;;;;3.17;1.80;;;23.40;16.80;;;;;;5062773;28;20459;-82
2022/08/23 01:44:51;;;;;;;2.17;1.40;;;23.40;16.70;;;;;;5067103;28;20544;-82
2022/08/23 01:47:19;;;;;;;1.77;1.67;;;23.40;16.10;;;;;;5056585;28;20443;-81
2022/08/23 01:49:47;;;;;;;1.43;1.30;;;23.40;16.60;;;;;;5068750;28;20458;-82
2022/08/23 01:52:16;;;;;;;1.73;1.60;;;23.30;15.90;;;;;;5070143;28;20477;-82
2022/08/23 01:54:44;;;;;;;2.97;1.43;;;23.30;15.90;;;;;;5070678;28;20532;-81
2022/08/23 01:57:14;;;;;;;1.37;1.30;;;23.20;15.40;;;;;;5063200;28;20485;-82
2022/08/23 01:59:43;;;;;;;1.50;1.40;;;23.20;14.00;;;;;;5067039;28;20449;-82
2022/08/23 02:02:12;;;;;;;1.80;1.70;;;23.20;13.90;;;;;;5058676;28;20446;-82
2022/08/23 02:04:40;;;;;;;2.87;1.63;;;23.20;15.30;;;;;;5068863;28;20470;-82
2022/08/23 02:07:08;;;;;;;1.57;1.47;;;23.20;16.60;;;;;;5070425;28;20493;-82
2022/08/23 02:09:37;;;;;;;1.70;1.60;;;23.20;15.80;;;;;;5071632;28;20454;-83
2022/08/23 02:12:06;;;;;;;1.67;1.57;;;23.20;15.70;;;;;;5073711;28;20460;-83
2022/08/23 02:14:40;;;;;;;1.70;1.57;;;23.20;14.20;;;;;;5071381;28;20862;-83
2022/08/23 02:17:09;;;;;;;2.40;1.80;;;23.10;14.60;;;;;;5072114;28;20449;-83
2022/08/23 02:19:38;;;;;;;1.63;1.53;;;23.10;13.70;;;;;;5060605;28;20945;-83
2022/08/23 02:22:08;;;;;;;1.80;1.70;;;23.10;13.70;;;;;;5073920;28;20457;-83
2022/08/23 02:24:40;;;;;;;1.40;1.30;;;23.00;14.60;;;;;;5073182;28;20481;-83
2022/08/23 02:27:08;;;;;;;2.60;1.30;;;23.10;14.50;;;;;;5073371;28;20450;-83
2022/08/23 02:29:39;;;;;;;4.60;2.20;;;23.00;14.70;;;;;;5071025;28;20450;-83
2022/08/23 02:32:12;;;;;;;1.73;1.60;;;23.00;14.60;;;;;;5067909;28;20485;-83
2022/08/23 02:34:42;;;;;;;1.80;1.70;;;22.90;14.10;;;;;;5072745;28;20473;-83
2022/08/23 02:37:17;;;;;;;2.50;1.50;;;22.90;14.90;;;;;;5073262;28;20544;-83
2022/08/23 02:39:46;;;;;;;1.50;1.40;;;22.80;15.30;;;;;;5071840;28;20463;-83
2022/08/23 02:42:14;;;;;;;1.83;1.70;;;22.80;15.40;;;;;;5073170;28;20549;-83
2022/08/23 02:44:44;;;;;;;1.70;1.60;;;22.70;14.30;;;;;;5067660;28;20463;-83
2022/08/23 02:47:12;;;;;;;1.57;1.47;;;22.70;14.00;;;;;;5068450;28;20458;-83
2022/08/23 02:49:40;;;;;;;2.13;1.70;;;22.60;15.60;;;;;;5061044;28;20465;-82
2022/08/23 02:52:08;;;;;;;2.00;1.60;;;22.60;14.40;;;;;;5072909;28;21207;-83
2022/08/23 02:54:36;;;;;;;1.90;1.80;;;22.60;12.50;;;;;;5072588;28;21111;-84
2022/08/23 02:57:05;;;;;;;1.70;1.60;;;22.60;14.10;;;;;;5070435;28;20462;-83
2022/08/23 02:59:34;;;;;;;2.17;1.97;;;22.50;13.00;;;;;;5059018;28;20478;-83
2022/08/23 03:02:03;;;;;;;2.63;2.43;;;22.50;13.60;;;;;;5072193;28;20519;-82
2022/08/23 03:04:31;;;;;;;2.03;1.93;;;22.50;14.80;;;;;;5069455;28;20489;-83
2022/08/23 03:07:00;;;;;;;3.43;2.13;;;22.50;13.90;;;;;;5067446;28;20519;-82
2022/08/23 03:09:28;;;;;;;2.23;1.83;;;22.50;13.80;;;;;;5063671;28;20451;-83
2022/08/23 03:11:56;;;;;;;1.97;1.77;;;22.50;13.70;;;;;;5067174;28;21182;-83
2022/08/23 03:14:26;;;;;;;1.73;1.50;;;22.30;13.50;;;;;;5072705;28;20481;-82
2022/08/23 03:16:54;;;;;;;1.87;1.60;;;22.50;14.20;;;;;;5072041;28;20458;-82
2022/08/23 03:19:26;;;;;;;2.53;1.40;;;22.50;13.80;;;;;;5072991;28;20832;-83
2022/08/23 03:21:54;;;;;;;3.83;1.83;;;22.40;14.30;;;;;;5069871;28;20463;-83
2022/08/23 03:24:22;;;;;;;2.87;2.17;;;22.40;26.50;;;;;;5071965;28;20525;-82
2022/08/23 03:26:51;;;;;;;1.70;1.60;;;22.40;15.20;;;;;;5071536;28;20698;-84
2022/08/23 03:29:19;;;;;;;2.80;1.80;;;22.50;14.00;;;;;;5072578;28;20460;-83
2022/08/23 03:31:47;;;;;;;1.83;1.63;;;22.40;14.60;;;;;;5071915;28;20439;-84
2022/08/23 03:34:15;;;;;;;2.00;1.80;;;22.40;15.60;;;;;;5058306;28;20489;-83
2022/08/23 03:36:45;;;;;;;2.60;2.50;;;22.40;16.00;;;;;;5072299;28;20439;-84
2022/08/23 03:39:13;;;;;;;1.90;1.80;;;22.30;14.80;;;;;;5066520;28;21005;-83
2022/08/23 03:41:41;;;;;;;2.63;1.73;;;22.30;15.30;;;;;;5070646;28;20531;-82
2022/08/23 03:44:09;;;;;;;1.90;1.60;;;22.30;15.80;;;;;;5063232;28;20471;-82
2022/08/23 03:46:37;;;;;;;1.97;1.77;;;22.30;15.60;;;;;;5071684;28;20489;-83
2022/08/23 03:49:06;;;;;;;2.90;2.10;;;22.20;15.70;;;;;;5069992;28;20458;-82
2022/08/23 03:51:34;;;;;;;2.10;1.90;;;22.20;13.80;;;;;;5058274;28;20466;-82
2022/08/23 03:54:05;;;;;;;1.97;1.87;;;22.20;15.00;;;;;;5071692;28;20471;-83
2022/08/23 03:56:38;;;;;;;1.90;1.80;;;22.10;13.30;;;;;;5063175;28;20459;-82
2022/08/23 03:59:09;;;;;;;2.70;1.93;;;22.10;13.30;;;;;;5071844;28;20479;-83
2022/08/23 04:01:37;;;;;;;2.67;1.80;;;22.10;14.00;;;;;;5062937;28;20459;-82
2022/08/23 04:04:06;;;;;;;1.70;1.60;;;22.10;15.70;;;;;;5053002;28;20567;-84
2022/08/23 04:06:34;;;;;;;2.00;1.90;;;22.10;15.50;;;;;;5058688;28;20464;-83
2022/08/23 04:09:04;;;;;;;2.10;2.00;;;22.00;14.60;;;;;;5065600;28;20854;-83
2022/08/23 04:11:32;;;;;;;1.53;1.30;;;22.00;12.90;;;;;;5066333;28;20474;-84
2022/08/23 04:14:00;;;;;;;2.20;1.57;;;22.00;14.30;;;;;;5055936;28;20487;-83
2022/08/23 04:16:32;;;;;;;1.73;1.63;;;21.90;13.80;;;;;;5060177;28;20464;-83
2022/08/23 04:19:00;;;;;;;1.70;1.60;;;22.00;13.10;;;;;;5066990;28;20485;-82
2022/08/23 04:21:28;;;;;;;3.53;1.60;;;22.00;14.20;;;;;;5067583;28;20879;-84
2022/08/23 04:23:56;;;;;;;2.30;2.00;;;21.90;14.10;;;;;;5054495;28;21304;-84
2022/08/23 04:26:26;;;;;;;2.30;2.10;;;21.90;14.50;;;;;;5061939;28;20549;-84
2022/08/23 04:28:57;;;;;;;2.00;1.80;;;21.90;14.40;;;;;;5067505;28;20530;-82
2022/08/23 04:31:27;;;;;;;2.20;2.00;;;21.80;14.90;;;;;;5059432;28;20557;-83
2022/08/23 04:34:02;;;;;;;1.87;1.77;;;21.80;12.50;;;;;;5063609;28;20475;-83
2022/08/23 04:36:35;;;;;;;1.73;1.63;;;21.80;13.50;;;;;;5069408;28;20455;-83
2022/08/23 04:39:03;;;;;;;2.13;1.90;;;21.80;13.20;;;;;;5063324;28;20487;-83
2022/08/23 04:44:18;;;;;;;1.90;1.80;;;21.80;14.20;;;;;;5054023;28;20479;-83
2022/08/23 04:46:47;;;;;;;1.93;1.83;;;21.70;14.50;;;;;;5062135;28;20477;-83
2022/08/23 04:49:16;;;;;;;1.77;1.67;;;21.70;14.10;;;;;;5057558;28;20494;-87
2022/08/23 04:51:44;;;;;;;1.83;1.70;;;21.70;13.50;;;;;;5054096;28;20447;-84
2022/08/23 04:54:22;;;;;;;2.30;1.60;;;21.70;13.40;;;;;;5057991;28;20961;-84
2022/08/23 04:56:51;;;;;;;3.53;2.30;;;21.70;12.90;;;;;;5066792;28;20989;-82
2022/08/23 04:59:19;;;;;;;2.20;2.00;;;21.70;13.90;;;;;;5069765;28;20480;-83
2022/08/23 05:01:47;;;;;;;3.90;2.30;;;21.60;14.50;;;;;;5056274;28;20456;-83
2022/08/23 05:04:16;;;;;;;2.43;2.20;;;21.60;14.70;;;;;;5064567;28;20479;-83
2022/08/23 05:06:45;;;;;;;1.90;1.80;;;21.70;15.50;;;;;;5068534;28;20981;-83
2022/08/23 05:09:13;;;;;;;2.13;1.93;;;21.60;14.10;;;;;;5058273;28;20458;-83
2022/08/23 05:11:48;;;;;;;1.90;1.73;;;21.70;15.20;;;;;;5057442;28;20991;-83
2022/08/23 05:14:18;;;;;;;2.83;2.07;;;21.60;16.20;;;;;;5062099;28;20471;-84
2022/08/23 05:16:46;;;;;;;2.23;2.03;;;21.70;15.60;;;;;;5063715;28;20448;-83
2022/08/23 05:19:14;;;;;;;2.03;1.83;;;21.70;17.50;;;;;;5066253;28;20485;-82
2022/08/23 05:21:42;;;;;;;3.40;1.90;;;21.60;18.10;;;;;;5069414;28;20456;-83
2022/08/23 05:24:11;;;;;;;2.03;1.80;;;21.70;17.20;;;;;;5070067;28;21021;-84
2022/08/23 05:26:41;;;;;;;2.77;2.37;;;21.70;18.00;;;;;;5070158;28;20541;-83
2022/08/23 05:29:09;;;;;;;2.37;2.17;;;21.70;19.60;;;;;;5069018;28;20462;-83
2022/08/23 05:31:39;;;;;;;2.50;2.13;;;21.70;17.50;;;;;;5058576;28;21161;-83
2022/08/23 05:34:07;;;;;;;2.40;2.23;;;21.70;17.30;;;;;;5069252;28;20475;-84
2022/08/23 05:36:36;;;;;;;2.63;2.20;;;21.70;17.80;;;;;;5070396;28;21118;-83
2022/08/23 05:39:06;;;;;;;2.93;2.13;;;21.70;18.30;;;;;;5068984;28;21097;-83
2022/08/23 05:41:34;;;;;;;2.67;2.30;;;21.80;16.70;;;;;;5068783;28;20454;-83
2022/08/23 05:44:05;;;;;;;2.40;2.20;;;21.80;19.10;;;;;;5072095;28;20897;-84
2022/08/23 05:46:34;;;;;;;2.93;2.50;;;21.80;19.50;;;;;;5074258;28;20458;-83
2022/08/23 05:49:05;;;;;;;2.60;2.40;;;21.80;21.50;;;;;;5073041;28;20457;-83
2022/08/23 05:51:34;;;;;;;2.63;2.43;;;21.90;20.00;;;;;;5080691;28;20504;-84
2022/08/23 05:54:06;;;;;;;2.77;2.07;;;21.90;18.70;;;;;;5073540;28;20845;-82
2022/08/23 05:56:35;;;;;;;3.70;2.40;;;22.00;19.50;;;;;;5071882;28;20455;-83
2022/08/23 05:59:06;;;;;;;2.73;2.53;;;22.00;21.60;;;;;;5084153;28;21052;-83
2022/08/23 06:01:40;;;;;;;2.77;2.57;;;22.00;21.40;;;;;;5074066;28;20454;-82
2022/08/23 06:04:11;;;;;;;3.20;2.83;;;22.10;21.10;;;;;;5073411;28;20879;-83
2022/08/23 06:06:41;;;;;;;2.90;2.43;;;22.20;22.80;;;;;;5074041;28;20464;-83
2022/08/23 06:09:13;;;;;;;3.23;2.80;;;22.30;22.90;;;;;;5073348;28;20496;-82
2022/08/23 06:11:42;;;;;;;3.60;2.50;;;22.30;25.50;;;;;;5067469;28;20524;-83
2022/08/23 06:14:11;;;;;;;5.20;2.47;;;22.40;24.90;;;;;;5073281;28;20473;-84
2022/08/23 06:16:42;;;;;;;4.00;3.63;;;22.50;25.20;;;;;;5073602;28;20450;-82
2022/08/23 06:19:13;;;;;;;4.03;2.80;;;22.50;26.10;;;;;;5072983;28;20442;-82
2022/08/23 06:21:42;;;;;;;3.23;3.03;;;22.60;39.80;;;;;;5072830;28;20486;-83
2022/08/23 06:24:12;;;;;;;2.60;2.40;;;22.70;27.50;;;;;;5059268;28;20870;-83
2022/08/23 06:26:43;;;;;;;4.43;2.70;;;22.80;28.30;;;;;;5072929;28;20454;-82
2022/08/23 06:29:13;;;;;;;2.87;2.67;;;23.00;29.70;;;;;;5071806;28;20511;-83
2022/08/23 06:31:46;;;;;;;4.30;4.00;;;23.10;30.30;;;;;;5073600;28;20486;-84
2022/08/23 06:34:19;;;;;;;3.43;3.00;;;23.10;30.80;;;;;;5072423;28;20482;-83
2022/08/23 06:36:50;;;;;;;3.30;3.00;;;23.30;31.40;;;;;;5072788;28;20669;-82
2022/08/23 06:39:20;;;;;;;2.90;2.70;;;23.40;33.00;;;;;;5073146;28;20454;-83
2022/08/23 06:41:48;;;;;;;2.60;2.40;;;23.50;33.50;;;;;;5065368;28;20478;-82
2022/08/23 06:44:18;;;;;;;2.80;2.60;;;23.70;35.80;;;;;;5073137;28;20539;-83
2022/08/23 06:46:47;;;;;;;3.60;2.37;;;23.80;36.40;;;;;;5071560;28;20462;-83
2022/08/23 06:49:17;;;;;;;3.07;2.80;;;24.00;38.70;;;;;;5072796;28;20465;-83
2022/08/23 06:51:50;;;;;;;3.03;2.33;;;24.10;39.70;;;;;;5073104;28;20454;-83
2022/08/23 06:54:21;;;;;;;2.60;2.40;;;24.30;37.50;;;;;;5072518;28;20516;-82
2022/08/23 06:56:49;;;;;;;2.73;2.50;;;24.50;39.40;;;;;;5072851;28;20450;-83
2022/08/23 06:59:19;;;;;;;2.47;2.27;;;24.60;41.00;;;;;;5072523;28;20458;-84
2022/08/23 07:01:51;;;;;;;3.70;2.80;;;24.70;40.90;;;;;;5072402;28;20486;-82
2022/08/23 07:04:23;;;;;;;3.50;3.20;;;24.80;42.20;;;;;;5071183;28;20819;-83
2022/08/23 07:06:52;;;;;;;2.33;2.13;;;25.00;42.60;;;;;;5073272;28;20833;-84
2022/08/23 07:09:20;;;;;;;8.20;2.40;;;25.00;43.30;;;;;;5072773;28;20493;-83
2022/08/23 07:11:49;;;;;;;2.43;2.20;;;25.10;46.70;;;;;;5071974;28;20446;-82
2022/08/23 07:14:20;;;;;;;8.93;2.47;;;25.30;46.00;;;;;;5072779;28;21142;-83
2022/08/23 07:16:50;;;;;;;2.13;1.93;;;25.30;46.30;;;;;;5071466;28;20942;-83
2022/08/23 07:19:21;;;;;;;1.97;1.80;;;25.40;46.20;;;;;;5071308;28;20446;-82
2022/08/23 07:21:56;;;;;;;2.57;1.80;;;25.60;46.80;;;;;;5069758;28;20477;-82
2022/08/23 07:24:26;;;;;;;2.00;1.90;;;25.60;49.20;;;;;;5072296;28;20474;-83
2022/08/23 07:27:05;;;;;;;2.13;2.00;;;25.70;45.50;;;;;;5065791;28;20936;-83
2022/08/23 07:29:35;;;;;;;4.13;2.37;;;25.70;46.20;;;;;;5066136;28;20455;-83
2022/08/23 07:32:03;;;;;;;2.07;1.90;;;25.70;47.80;;;;;;5071978;28;21129;-83
2022/08/23 07:34:33;;;;;;;2.50;2.23;;;25.80;46.80;;;;;;5072118;28;20588;-83
2022/08/23 07:37:02;;;;;;;2.50;2.00;;;25.90;46.80;;;;;;5065747;28;20514;-83
2022/08/23 07:39:38;;;;;;;2.67;2.47;;;26.00;46.70;;;;;;5072940;28;20442;-83
2022/08/23 07:42:08;;;;;;;2.60;2.30;;;26.00;46.70;;;;;;5065955;28;20469;-84
2022/08/23 07:44:52;;;;;;;2.67;1.90;;;26.00;45.20;;;;;;5075777;28;20467;-83
2022/08/23 07:47:21;;;;;;;2.60;1.97;;;26.00;41.70;;;;;;5076047;28;20466;-83
2022/08/23 07:49:50;;;;;;;2.00;1.90;;;26.00;42.50;;;;;;5075253;28;20451;-83
2022/08/23 07:52:18;;;;;;;1.83;1.63;;;26.10;45.00;;;;;;5075206;28;20898;-82
2022/08/23 07:54:47;;;;;;;1.90;1.80;;;26.20;45.30;;;;;;5068948;28;20474;-83
2022/08/23 07:57:16;;;;;;;1.97;1.80;;;26.20;45.70;;;;;;5072293;28;20451;-83
2022/08/23 07:59:45;;;;;;;2.70;1.50;;;26.20;45.40;;;;;;5071631;28;20447;-83
2022/08/23 08:02:13;;;;;;;2.90;1.60;;;26.20;46.70;;;;;;5057714;28;20479;-81
2022/08/23 08:04:42;;;;;;;1.70;1.60;;;26.30;45.10;;;;;;5062904;28;20582;-84
2022/08/23 08:07:12;;;;;;;2.10;1.30;;;26.30;43.90;;;;;;5064913;28;20470;-83
2022/08/23 08:09:48;;;;;;;1.63;1.53;;;26.40;47.00;;;;;;5069474;28;21340;-83
2022/08/23 08:12:16;;;;;;;1.83;1.60;;;26.40;45.10;;;;;;5056825;28;20513;-83
2022/08/23 08:14:46;;;;;;;1.60;1.50;;;26.40;59.90;;;;;;5071250;28;20549;-83
2022/08/23 08:17:16;;;;;;;1.53;1.33;;;26.40;44.70;;;;;;5070602;28;20525;-83
2022/08/23 08:19:45;;;;;;;1.80;1.70;;;26.40;45.40;;;;;;5070690;28;20438;-82
2022/08/23 08:22:15;;;;;;;2.00;1.50;;;26.50;43.60;;;;;;5071361;28;20764;-83
2022/08/23 08:24:43;;;;;;;1.60;1.50;;;26.50;42.70;;;;;;5070784;28;20475;-83
2022/08/23 08:27:11;;;;;;;1.97;1.77;;;26.70;42.40;;;;;;5070069;28;20458;-83
2022/08/23 08:29:40;;;;;;;1.70;1.60;;;26.70;44.20;;;;;;5061096;28;20459;-83
2022/08/23 08:32:08;;;;;;;1.50;1.40;;;26.70;40.90;;;;;;5071016;28;20442;-83
2022/08/23 08:34:41;;;;;;;2.03;1.70;;;26.70;41.80;;;;;;5060652;28;20483;-83
2022/08/23 08:37:09;;;;;;;1.60;1.50;;;26.70;40.20;;;;;;5068727;28;20537;-83
2022/08/23 08:39:44;;;;;;;2.30;1.70;;;26.70;42.70;;;;;;5058236;28;20444;-83
2022/08/23 08:42:45;;;;;;;1.70;1.60;;;26.70;42.00;;;;;;5057668;28;20535;-82
2022/08/23 08:45:19;;;;;;;1.50;1.40;;;26.80;39.90;;;;;;5067654;28;20489;-83
2022/08/23 08:47:50;;;;;;;1.60;1.50;;;26.80;41.80;;;;;;5070321;28;20465;-82
2022/08/23 08:50:25;;;;;;;1.77;1.43;;;26.80;42.30;;;;;;5070562;28;20512;-83
2022/08/23 08:53:00;;;;;;;1.77;1.57;;;26.80;43.30;;;;;;5069456;28;20465;-82
2022/08/23 08:55:32;;;;;;;1.80;1.70;;;26.90;43.00;;;;;;5070835;28;20963;-82
2022/08/23 08:58:02;;;;;;;1.60;1.50;;;26.90;39.00;;;;;;5071251;28;20451;-83
2022/08/23 09:00:33;;;;;;;1.77;1.40;;;26.90;40.10;;;;;;5069991;28;21110;-84
2022/08/23 09:03:12;;;;;;;1.90;1.47;;;26.90;37.40;;;;;;5058000;28;20486;-82
2022/08/23 09:05:51;;;;;;;1.80;1.70;;;26.90;37.60;;;;;;5069543;28;20486;-83
2022/08/23 09:08:35;;;;;;;1.70;1.60;;;27.00;38.00;;;;;;5069057;28;20442;-83
2022/08/23 09:11:16;;;;;;;1.47;1.37;;;27.00;37.90;;;;;;5068998;28;20508;-82
2022/08/23 09:14:10;;;;;;;2.10;1.70;;;27.00;40.20;;;;;;5062376;28;20486;-83
2022/08/23 09:16:49;;;;;;;2.20;1.87;;;27.10;39.20;;;;;;5048003;28;20460;-83
2022/08/23 09:19:18;;;;;;;1.70;1.60;;;27.10;51.40;;;;;;5057768;28;20470;-83
2022/08/23 09:21:48;;;;;;;1.50;1.40;;;27.10;39.60;;;;;;5068801;28;20474;-84
2022/08/23 09:24:16;;;;;;;2.30;1.50;;;27.20;39.30;;;;;;5069292;28;21028;-82
2022/08/23 09:26:46;;;;;;;1.87;1.30;;;27.20;39.10;;;;;;5065215;28;20467;-82
2022/08/23 09:29:21;;;;;;;1.40;1.30;;;27.30;38.10;;;;;;5059597;28;20463;-83
2022/08/23 09:31:52;;;;;;;1.60;1.40;;;27.20;36.70;;;;;;5064188;28;20443;-83
2022/08/23 09:34:36;;;;;;;1.50;1.40;;;27.30;39.60;;;;;;5068587;28;20482;-84
2022/08/23 09:37:16;;;;;;;1.73;1.30;;;27.40;38.60;;;;;;5068187;28;20459;-83
2022/08/23 09:39:48;;;;;;;1.30;1.20;;;27.40;36.20;;;;;;5067929;28;20507;-82
2022/08/23 09:42:34;;;;;;;1.73;1.63;;;27.40;36.50;;;;;;5062866;28;20566;-84
2022/08/23 09:45:06;;;;;;;1.80;1.60;;;27.40;35.90;;;;;;5069301;28;20480;-83
2022/08/23 09:47:40;;;;;;;1.33;1.10;;;27.40;35.80;;;;;;5069171;28;21904;-83
2022/08/23 09:50:24;;;;;;;1.53;1.43;;;27.40;36.50;;;;;;5069309;28;20503;-83
2022/08/23 09:52:58;;;;;;;1.33;1.23;;;27.50;35.70;;;;;;5064350;28;20502;-83
2022/08/23 09:55:31;;;;;;;1.47;1.37;;;27.50;32.90;;;;;;5061706;28;21022;-82
2022/08/23 09:58:05;;;;;;;1.30;1.20;;;27.50;31.80;;;;;;5067518;28;20503;-82
2022/08/23 10:00:36;;;;;;;1.30;1.20;;;27.50;34.20;;;;;;5069184;28;20451;-83
2022/08/23 10:03:23;;;;;;;1.50;1.40;;;27.60;34.70;;;;;;5068656;28;20466;-82
2022/08/23 10:05:53;;;;;;;4.10;1.50;;;27.70;34.70;;;;;;5067364;28;21004;-83
2022/08/23 10:08:24;;;;;;;1.87;1.20;;;27.70;34.60;;;;;;5068913;28;20462;-82
2022/08/23 10:10:56;;;;;;;1.50;1.40;;;27.70;35.50;;;;;;5061904;28;20512;-83
2022/08/23 10:13:26;;;;;;;1.30;1.20;;;27.70;35.00;;;;;;5067937;28;20446;-84
2022/08/23 10:16:04;;;;;;;2.70;1.30;;;27.70;35.60;;;;;;5068699;28;20462;-84
2022/08/23 10:18:49;;;;;;;1.47;1.37;;;27.70;31.30;;;;;;5067891;28;20512;-83
2022/08/23 10:21:24;;;;;;;1.63;1.30;;;27.70;31.30;;;;;;5059599;28;20942;-84
2022/08/23 10:24:11;;;;;;;1.70;1.60;;;27.70;33.30;;;;;;5053522;28;21035;-83
2022/08/23 10:26:46;;;;;;;1.57;1.17;;;27.80;32.70;;;;;;5063965;28;20855;-83
2022/08/23 10:29:39;;;;;;;2.40;1.20;;;27.80;33.80;;;;;;5062909;28;20469;-83
2022/08/23 10:32:21;;;;;;;2.10;1.40;;;27.80;35.00;;;;;;5079328;28;20548;-83
2022/08/23 10:35:00;;;;;;;1.50;1.40;;;27.80;34.80;;;;;;5076310;28;20873;-83
2022/08/23 10:37:42;;;;;;;2.27;1.40;;;27.90;34.60;;;;;;5072064;28;20860;-82
2022/08/23 10:40:16;;;;;;;1.13;1.00;;;27.90;33.20;;;;;;5067138;28;20780;-82
2022/08/23 10:43:15;;;;;;;2.40;1.23;;;27.90;30.80;;;;;;5064731;28;20547;-83
